Time;durP1;ratioP1;P1;durP2;ratioP2;P2;SDS_P1;SDS_P2;PMS_P1;PMS_P2;Temp;Humidity;BMP_temperature;BMP_pressure;BME280_temperature;BME280_humidity;BME280_pressure;Samples;Min_cycle;Max_cycle;Signal;HPM_P1;HPM_P2
2021/07/01 00:00:24;;;;;;;6.68;4.90;;;;;;;19.28;100.00;98496.78;4822463;29;20073;-59
2021/07/01 00:02:49;;;;;;;7.18;4.65;;;;;;;19.20;100.00;98498.44;4822632;29;20463;-59
2021/07/01 00:05:16;;;;;;;7.47;4.80;;;;;;;19.18;100.00;98495.09;4821630;29;20183;-59
2021/07/01 00:07:43;;;;;;;10.27;5.03;;;;;;;19.19;100.00;98502.88;4822186;29;20537;-60
2021/07/01 00:10:16;;;;;;;7.22;5.25;;;;;;;19.21;100.00;98494.84;4805580;29;20068;-56
2021/07/01 00:12:42;;;;;;;8.95;4.93;;;;;;;19.19;100.00;98497.59;4821294;29;20110;-57
2021/07/01 00:15:13;;;;;;;8.50;5.78;;;;;;;19.21;100.00;98506.19;4819671;29;20137;-59
2021/07/01 00:17:42;;;;;;;9.02;5.43;;;;;;;19.27;100.00;98502.16;4821894;29;20043;-60
2021/07/01 00:20:09;;;;;;;8.98;4.43;;;;;;;19.28;100.00;98501.22;4822417;29;20058;-59
2021/07/01 00:22:35;;;;;;;8.77;4.82;;;;;;;19.27;100.00;98499.53;4822298;29;20050;-62
2021/07/01 00:25:01;;;;;;;7.13;5.20;;;;;;;19.30;100.00;98491.38;4804615;29;20042;-61
2021/07/01 00:27:28;;;;;;;7.53;4.80;;;;;;;19.35;100.00;98489.16;4821092;29;20514;-60
2021/07/01 00:29:55;;;;;;;6.00;4.55;;;;;;;19.32;100.00;98486.78;4821800;29;20128;-58
2021/07/01 00:32:21;;;;;;;6.68;4.30;;;;;;;19.28;100.00;98488.03;4816109;29;20075;-60
2021/07/01 00:34:47;;;;;;;7.80;5.13;;;;;;;19.25;100.00;98497.06;4821681;29;20039;-60
2021/07/01 00:37:13;;;;;;;7.28;5.25;;;;;;;19.25;100.00;98486.53;4821981;29;20053;-60
2021/07/01 00:39:38;;;;;;;6.35;5.00;;;;;;;19.31;100.00;98487.78;4822082;29;20145;-59
2021/07/01 00:42:04;;;;;;;6.65;4.10;;;;;;;19.24;100.00;98486.66;4822335;29;20047;-59
2021/07/01 00:44:30;;;;;;;8.43;5.60;;;;;;;19.20;100.00;98494.00;4803972;29;20166;-61
2021/07/01 00:46:56;;;;;;;7.68;4.15;;;;;;;19.24;100.00;98497.19;4790136;29;20145;-60
2021/07/01 00:49:23;;;;;;;8.55;5.40;;;;;;;19.23;100.00;98498.97;4819334;29;20069;-60
2021/07/01 00:51:49;;;;;;;6.43;4.05;;;;;;;19.25;100.00;98494.44;4803950;29;20138;-60
2021/07/01 00:54:16;;;;;;;9.32;4.30;;;;;;;19.26;100.00;98496.06;4802950;29;20046;-60
2021/07/01 00:57:08;;;;;;;7.78;4.03;;;;;;;19.29;100.00;98495.81;5282754;24;20048;31
2021/07/01 00:59:33;;;;;;;7.85;4.95;;;;;;;19.37;100.00;98495.09;4766770;29;20607;-60
2021/07/01 01:01:59;;;;;;;6.88;4.15;;;;;;;19.35;100.00;98492.63;4768882;30;20047;-59
2021/07/01 01:04:25;;;;;;;8.50;4.43;;;;;;;19.39;100.00;98493.19;4785361;29;20040;-60
2021/07/01 01:06:51;;;;;;;8.02;4.93;;;;;;;19.41;100.00;98499.16;4785873;30;20074;-60
2021/07/01 01:09:17;;;;;;;7.97;4.30;;;;;;;19.42;100.00;98496.38;4785601;29;20479;-60
2021/07/01 01:11:42;;;;;;;9.40;5.43;;;;;;;19.47;100.00;98492.53;4785325;29;20054;-60
2021/07/01 01:14:11;;;;;;;;;;;;;;;19.49;100.00;98501.13;4784595;29;20047;-59
2021/07/01 01:16:51;;;;;;;9.40;5.07;;;;;;;19.50;100.00;98498.38;4783989;29;19932;-60
2021/07/01 01:19:17;;;;;;;8.85;4.95;;;;;;;19.52;100.00;98501.72;4786232;29;20054;-59
2021/07/01 01:21:49;;;;;;;7.68;4.50;;;;;;;19.53;100.00;98490.16;4785547;29;20043;-60
2021/07/01 01:24:15;;;;;;;6.40;4.40;;;;;;;19.58;100.00;98495.84;4785141;29;20526;-58
2021/07/01 01:26:41;;;;;;;9.18;4.70;;;;;;;19.59;100.00;98484.34;4766252;30;20043;-60
2021/07/01 01:29:07;;;;;;;6.45;4.07;;;;;;;19.62;100.00;98480.63;4776297;29;20047;-60
2021/07/01 01:31:36;;;;;;;6.72;3.83;;;;;;;19.63;100.00;98482.25;4784938;29;20114;-59
2021/07/01 01:34:02;;;;;;;7.80;4.20;;;;;;;19.65;100.00;98489.06;4784251;29;20051;-60
2021/07/01 01:36:28;;;;;;;5.60;4.20;;;;;;;19.65;100.00;98485.59;4784203;29;20035;-60
2021/07/01 01:38:55;;;;;;;4.50;3.30;;;;;;;19.67;100.00;98486.31;4784956;29;20043;-59
2021/07/01 01:41:43;;;;;;;8.27;3.70;;;;;;;19.69;100.00;98484.34;4751705;30;20100;-60
2021/07/01 01:44:09;;;;;;;7.30;4.03;;;;;;;19.71;100.00;98485.03;4768131;29;20080;-60
2021/07/01 01:46:36;;;;;;;5.95;3.50;;;;;;;19.72;100.00;98482.28;4767906;30;20047;-61
2021/07/01 01:49:03;;;;;;;4.85;3.50;;;;;;;19.71;100.00;98477.97;4794205;29;20079;-60
2021/07/01 01:51:30;;;;;;;5.65;4.03;;;;;;;19.73;100.00;98481.28;4789409;29;20043;-60
2021/07/01 01:54:00;;;;;;;5.20;3.42;;;;;;;19.77;100.00;98487.13;4768345;30;20074;-60
2021/07/01 01:56:36;;;;;;;6.28;3.80;;;;;;;19.79;100.00;98474.63;4784735;29;20496;-60
2021/07/01 01:59:07;;;;;;;5.03;3.60;;;;;;;19.78;100.00;98478.25;4787125;29;20059;-60
2021/07/01 02:01:53;;;;;;;4.80;3.38;;;;;;;19.79;100.00;98479.91;4750868;30;20546;-59
2021/07/01 02:04:35;;;;;;;4.80;3.80;;;;;;;19.80;100.00;98469.22;4787012;29;20047;-58
2021/07/01 02:07:01;;;;;;;3.35;2.97;;;;;;;19.81;100.00;98470.06;4788342;29;20057;-60
2021/07/01 02:09:42;;;;;;;6.65;3.30;;;;;;;19.85;100.00;98471.44;4787633;29;20418;-59
2021/07/01 02:12:08;;;;;;;8.63;3.65;;;;;;;19.89;100.00;98480.72;4771736;30;20044;-59
2021/07/01 02:14:36;;;;;;;6.90;3.65;;;;;;;19.92;100.00;98476.97;4785911;29;20141;-60
2021/07/01 02:17:14;;;;;;;4.60;2.83;;;;;;;19.95;100.00;98482.78;4771399;29;20043;-59
2021/07/01 02:19:41;;;;;;;5.80;3.07;;;;;;;19.90;100.00;98482.38;4785580;29;20047;-60
2021/07/01 02:22:07;;;;;;;5.95;3.55;;;;;;;19.95;100.00;98484.59;4786932;30;20400;-59
2021/07/01 02:24:39;;;;;;;5.78;3.15;;;;;;;19.97;100.00;98488.78;4787123;29;20054;-61
2021/07/01 02:27:05;;;;;;;3.00;2.42;;;;;;;20.02;100.00;98496.28;4771596;30;20047;-60
2021/07/01 02:29:32;;;;;;;3.50;2.72;;;;;;;20.03;100.00;98493.50;4771845;29;20043;-60
2021/07/01 02:32:07;;;;;;;3.78;2.33;;;;;;;20.07;100.00;98486.13;4786830;29;20059;-60
2021/07/01 02:34:40;;;;;;;5.03;3.38;;;;;;;20.11;100.00;98483.06;4769725;30;20047;-60
2021/07/01 02:37:12;;;;;;;2.65;2.45;;;;;;;20.16;100.00;98495.81;4774794;29;20043;-60
2021/07/01 02:39:47;;;;;;;4.55;2.63;;;;;;;20.20;100.00;98502.50;4787726;30;20637;-60
2021/07/01 02:42:12;;;;;;;3.85;2.72;;;;;;;20.22;100.00;98497.91;4786347;29;20051;-59
2021/07/01 02:44:39;;;;;;;3.70;2.58;;;;;;;20.24;100.00;98501.25;4770853;30;20043;-60
2021/07/01 02:47:28;;;;;;;3.63;2.85;;;;;;;20.26;100.00;98500.09;4788054;29;20047;-59
2021/07/01 02:49:55;;;;;;;3.33;2.42;;;;;;;20.29;100.00;98496.38;4785725;30;20043;-59
2021/07/01 02:52:27;;;;;;;5.35;2.90;;;;;;;20.30;100.00;98500.69;4770779;30;20066;-60
2021/07/01 02:54:53;;;;;;;3.60;2.60;;;;;;;20.30;100.00;98505.94;4786497;29;20515;-60
2021/07/01 02:57:19;;;;;;;3.95;2.60;;;;;;;20.31;100.00;98504.97;4770761;30;20534;-60
2021/07/01 02:59:55;;;;;;;3.17;2.30;;;;;;;20.33;100.00;98502.22;4787086;30;20054;-60
2021/07/01 03:02:23;;;;;;;5.85;2.63;;;;;;;20.30;100.00;98504.16;4787262;30;20745;-59
2021/07/01 03:05:06;;;;;;;4.50;2.90;;;;;;;20.34;100.00;98511.81;4767182;30;20051;-59
2021/07/01 03:07:32;;;;;;;2.78;2.35;;;;;;;20.37;100.00;98519.44;4787856;30;20064;-59
2021/07/01 03:09:58;;;;;;;4.53;3.35;;;;;;;20.39;100.00;98517.47;4769394;30;20051;-60
2021/07/01 03:12:24;;;;;;;3.15;2.20;;;;;;;20.41;100.00;98507.63;4785334;29;20052;-59
2021/07/01 03:14:51;;;;;;;3.60;2.10;;;;;;;20.40;100.00;98508.59;4786519;29;20057;-59
2021/07/01 03:17:17;;;;;;;2.50;2.30;;;;;;;20.45;100.00;98501.91;4787399;29;20085;-60
2021/07/01 03:19:43;;;;;;;5.82;3.90;;;;;;;20.50;100.00;98502.31;4785371;29;20059;-59
2021/07/01 03:22:28;;;;;;;2.47;2.28;;;;;;;20.61;100.00;98504.78;4785804;29;20055;-60
2021/07/01 03:24:55;;;;;;;5.97;2.70;;;;;;;20.68;100.00;98510.28;4776248;29;20209;-59
2021/07/01 03:27:21;;;;;;;2.88;2.40;;;;;;;20.73;100.00;98512.53;4786664;30;20516;-59
2021/07/01 03:29:47;;;;;;;2.83;2.42;;;;;;;20.72;100.00;98506.41;4770279;30;20051;-60
2021/07/01 03:32:16;;;;;;;2.90;2.30;;;;;;;20.64;100.00;98508.94;4770550;30;20488;-62
2021/07/01 03:34:42;;;;;;;4.88;3.33;;;;;;;20.68;100.00;98513.78;4771045;30;20104;-59
2021/07/01 03:37:08;;;;;;;3.80;2.42;;;;;;;20.70;100.00;98511.81;4770027;30;20043;-59
2021/07/01 03:39:52;;;;;;;5.03;2.10;;;;;;;20.65;100.00;98513.22;4784968;29;20051;-60
2021/07/01 03:42:25;;;;;;;3.05;2.40;;;;;;;20.63;100.00;98513.38;4786319;30;20047;-61
2021/07/01 03:44:51;;;;;;;7.70;2.33;;;;;;;20.63;100.00;98518.66;4769410;29;20401;-60
2021/07/01 03:47:17;;;;;;;7.07;4.03;;;;;;;20.66;100.00;98517.56;4786627;30;20139;-60
2021/07/01 03:49:44;;;;;;;2.50;2.20;;;;;;;20.61;100.00;98520.63;4769267;29;20051;-58
2021/07/01 03:52:30;;;;;;;3.88;3.13;;;;;;;20.58;100.00;98520.06;4786623;29;20584;-60
2021/07/01 03:54:57;;;;;;;5.38;3.10;;;;;;;20.54;100.00;98526.63;4768388;30;20136;-59
2021/07/01 03:57:24;;;;;;;5.00;2.38;;;;;;;20.57;100.00;98531.59;4783417;29;20067;-60
2021/07/01 03:59:50;;;;;;;6.90;2.70;;;;;;;20.52;100.00;98524.09;4786454;30;20058;-58
2021/07/01 04:02:35;;;;;;;5.47;2.92;;;;;;;20.53;100.00;98531.06;4785448;30;20451;-60
2021/07/01 04:05:08;;;;;;;5.43;3.35;;;;;;;20.66;100.00;98530.75;4799586;29;20050;-64
2021/07/01 04:07:35;;;;;;;6.78;3.83;;;;;;;20.79;100.00;98533.06;4786031;29;20055;-60
2021/07/01 04:10:07;;;;;;;6.50;3.80;;;;;;;20.93;100.00;98528.16;4785012;30;20066;-59
2021/07/01 04:12:49;;;;;;;4.55;3.20;;;;;;;21.03;100.00;98528.94;4785741;29;20050;-59
2021/07/01 04:15:33;;;;;;;8.00;3.53;;;;;;;21.06;100.00;98530.44;4785991;29;20503;-61
2021/07/01 04:18:18;;;;;;;5.68;3.15;;;;;;;21.09;100.00;98527.53;4785501;29;20055;-60
2021/07/01 04:21:03;;;;;;;4.35;2.65;;;;;;;21.09;100.00;98528.31;4784349;30;20415;-59
2021/07/01 04:23:47;;;;;;;3.67;2.20;;;;;;;21.08;100.00;98534.63;4769737;30;20551;-60
2021/07/01 04:26:32;;;;;;;4.10;2.60;;;;;;;21.15;100.00;98540.16;4785599;29;20130;-60
2021/07/01 04:29:00;;;;;;;;;;;;;;;21.22;100.00;98540.41;4783815;30;20538;-60
2021/07/01 04:31:27;;;;;;;4.20;2.90;;;;;;;21.23;100.00;98537.63;4784975;29;20397;-60
2021/07/01 04:33:56;;;;;;;8.32;5.00;;;;;;;21.20;100.00;98535.25;4768261;29;20046;-60
2021/07/01 04:36:22;;;;;;;8.07;5.03;;;;;;;21.20;100.00;98542.38;4784431;29;20426;-59
2021/07/01 04:38:48;;;;;;;8.98;5.70;;;;;;;21.17;100.00;98542.66;4785260;29;20047;-59
2021/07/01 04:41:20;;;;;;;11.25;6.18;;;;;;;21.16;100.00;98536.53;4769828;30;20603;-60
2021/07/01 04:43:48;;;;;;;10.10;3.67;;;;;;;21.21;100.00;98541.38;4768631;30;20527;-61
2021/07/01 04:46:16;;;;;;;3.65;3.03;;;;;;;21.25;100.00;98548.88;4784220;30;20059;-60
2021/07/01 04:48:46;;;;;;;4.07;3.28;;;;;;;21.33;100.00;98550.78;4783670;29;20474;-58
2021/07/01 04:51:14;;;;;;;3.95;3.03;;;;;;;21.40;100.00;98550.06;4769649;30;20059;-61
2021/07/01 04:53:58;;;;;;;4.20;3.10;;;;;;;21.47;100.00;98539.69;4784768;30;20047;-59
2021/07/01 04:56:46;;;;;;;4.97;3.22;;;;;;;21.52;100.00;98540.91;4783256;29;20082;-60
2021/07/01 04:59:20;;;;;;;4.75;3.17;;;;;;;21.72;100.00;98538.94;4783820;29;20043;-59
2021/07/01 05:02:06;;;;;;;9.48;6.25;;;;;;;21.91;100.00;98533.53;4785031;29;20089;-60
2021/07/01 05:04:44;;;;;;;10.07;7.78;;;;;;;22.15;100.00;98534.72;4768028;30;20059;-59
2021/07/01 05:10:09;;;;;;;5.43;3.67;;;;;;;22.49;100.00;98526.88;4910333;23;20071;-58
2021/07/01 05:13:07;;;;;;;2.75;2.45;;;;;;;22.48;100.00;98535.81;4786328;29;20062;-59
2021/07/01 05:15:33;;;;;;;3.28;2.80;;;;;;;22.48;100.00;98528.69;4786643;29;20580;-59
2021/07/01 05:18:03;;;;;;;4.40;2.60;;;;;;;22.63;98.85;98536.88;4800990;29;20499;-60
2021/07/01 05:20:30;;;;;;;5.22;2.90;;;;;;;22.86;96.42;98531.91;4782204;29;20545;-60
2021/07/01 05:23:14;;;;;;;5.07;3.60;;;;;;;23.28;93.02;98532.75;4800513;29;20429;-59
2021/07/01 05:26:06;;;;;;;3.67;2.70;;;;;;;23.69;88.89;98538.19;4799420;29;20059;-59
2021/07/01 05:28:50;;;;;;;4.20;2.65;;;;;;;23.85;87.53;98524.94;4795853;29;20505;-60
2021/07/01 05:31:35;;;;;;;3.30;2.55;;;;;;;23.74;86.20;98526.09;4799907;29;20046;-59
2021/07/01 05:34:29;;;;;;;4.40;2.92;;;;;;;23.53;87.67;98531.88;4761961;29;20071;-58
2021/07/01 05:36:56;;;;;;;7.38;2.75;;;;;;;23.46;88.04;98530.84;4790257;29;20050;-60
2021/07/01 05:39:26;;;;;;;4.90;2.85;;;;;;;23.39;87.98;98539.59;4786727;29;20073;-59
2021/07/01 05:41:53;;;;;;;5.68;3.30;;;;;;;23.31;88.31;98543.03;4786456;29;20059;-59
2021/07/01 05:44:19;;;;;;;3.95;3.53;;;;;;;23.24;88.77;98544.66;4789029;29;20048;-61
2021/07/01 05:46:49;;;;;;;2.97;2.50;;;;;;;23.26;88.20;98534.72;4789274;29;20495;-58
2021/07/01 05:49:14;;;;;;;4.22;2.28;;;;;;;23.39;87.21;98539.59;4780141;30;20070;-59
2021/07/01 05:51:41;;;;;;;3.40;2.22;;;;;;;23.49;86.63;98535.00;4805579;29;20050;-57
2021/07/01 05:56:38;;;;;;;2.63;2.30;;;;;;;23.50;86.93;98534.81;4806192;29;20533;-58
2021/07/01 05:59:08;;;;;;;2.85;2.30;;;;;;;23.52;86.27;98543.47;4804436;29;20079;-60
2021/07/01 06:01:37;;;;;;;4.82;2.40;;;;;;;23.63;85.85;98535.19;4800451;29;20079;-58
2021/07/01 06:04:04;;;;;;;3.33;2.40;;;;;;;23.71;85.07;98546.84;4801549;29;20466;-59
2021/07/01 06:06:59;;;;;;;2.95;2.47;;;;;;;23.72;84.81;98538.69;4792995;29;20149;-58
2021/07/01 06:09:32;;;;;;;5.70;2.13;;;;;;;23.69;84.79;98539.03;4801057;29;20120;-59
2021/07/01 06:12:00;;;;;;;6.32;2.40;;;;;;;23.64;84.64;98546.66;4799331;29;20473;-52
2021/07/01 06:14:27;;;;;;;10.95;5.35;;;;;;;23.50;85.96;98550.75;4789476;29;20043;-57
2021/07/01 06:16:56;;;;;;;4.97;3.00;;;;;;;23.39;86.80;98545.72;4800356;29;20050;-61
2021/07/01 06:19:22;;;;;;;4.68;1.98;;;;;;;23.35;87.08;98540.88;4802591;29;20509;-49
2021/07/01 06:21:49;;;;;;;5.45;2.92;;;;;;;23.40;87.22;98541.22;4802269;29;20054;-52
2021/07/01 06:24:16;;;;;;;5.15;2.92;;;;;;;23.58;86.66;98545.47;4802404;29;20119;-54
2021/07/01 06:26:43;;;;;;;3.35;2.40;;;;;;;23.78;86.85;98547.81;4784956;29;20047;-61
2021/07/01 06:29:10;;;;;;;2.95;2.30;;;;;;;23.86;86.63;98555.81;4786680;29;20042;-48
2021/07/01 06:31:37;;;;;;;6.75;3.83;;;;;;;23.93;86.63;98560.28;4804743;29;20046;-59
2021/07/01 06:34:03;;;;;;;4.70;3.83;;;;;;;24.15;85.86;98552.66;4785416;29;20046;-57
2021/07/01 06:36:29;;;;;;;5.00;3.55;;;;;;;24.48;83.86;98554.34;4804263;29;20680;-58
2021/07/01 06:39:14;;;;;;;15.23;10.50;;;;;;;24.83;81.30;98553.94;4789119;29;20051;-59
2021/07/01 06:42:02;;;;;;;7.70;5.50;;;;;;;24.75;79.47;98547.81;4766585;29;20058;-57
2021/07/01 06:45:04;;;;;;;6.50;4.85;;;;;;;24.65;79.67;98547.97;4748155;30;20074;-59
2021/07/01 06:47:55;;;;;;;2.95;2.00;;;;;;;24.61;78.72;98554.66;4798717;29;20085;-59
2021/07/01 06:50:41;;;;;;;4.18;2.60;;;;;;;24.64;78.90;98561.47;4799325;29;20051;-59
2021/07/01 06:53:35;;;;;;;4.68;2.72;;;;;;;24.62;79.22;98564.28;4785818;29;20055;-62
2021/07/01 06:56:21;;;;;;;11.18;7.63;;;;;;;24.84;78.91;98560.91;4787814;29;20047;-61
2021/07/01 06:58:47;;;;;;;8.18;6.20;;;;;;;25.08;77.40;98556.53;4800691;29;20046;-60
2021/07/01 07:01:12;;;;;;;3.45;2.40;;;;;;;25.14;76.25;98562.00;4800195;29;20099;-60
2021/07/01 07:03:38;;;;;;;4.88;3.72;;;;;;;25.09;77.15;98564.34;4810186;29;20655;-61
2021/07/01 07:06:05;;;;;;;7.57;5.30;;;;;;;24.93;78.24;98559.09;4804820;29;20050;-55
2021/07/01 07:08:31;;;;;;;7.57;4.93;;;;;;;24.74;79.46;98562.94;4805245;29;20095;-61
2021/07/01 07:10:58;;;;;;;13.25;7.82;;;;;;;24.51;81.57;98567.28;4805580;29;20046;-55
2021/07/01 07:13:25;;;;;;;14.63;9.77;;;;;;;24.18;84.03;98571.78;4805640;29;20055;-53
2021/07/01 07:15:53;;;;;;;8.32;4.13;;;;;;;23.89;87.55;98587.34;4804061;29;20100;-57
2021/07/01 07:18:25;;;;;;;13.43;4.38;;;;;;;23.51;92.88;98583.41;4800752;29;20074;-63
2021/07/01 07:21:02;;;;;;;11.18;5.22;;;;;;;23.17;98.74;98594.88;4802966;29;20065;-59
2021/07/01 07:23:30;;;;;;;9.32;3.50;;;;;;;22.93;100.00;98604.50;4804263;29;20078;-61
2021/07/01 07:25:57;;;;;;;6.43;2.55;;;;;;;22.74;100.00;98605.56;4802459;29;20046;-56
2021/07/01 07:28:25;;;;;;;9.02;2.05;;;;;;;22.58;100.00;98611.53;4804087;29;20433;-62
2021/07/01 07:30:56;;;;;;;5.60;2.27;;;;;;;22.59;100.00;98607.91;4787965;29;20131;-61
2021/07/01 07:33:24;;;;;;;16.15;8.43;;;;;;;22.84;100.00;98597.50;4804684;29;20095;-63
2021/07/01 07:35:51;;;;;;;6.70;3.20;;;;;;;23.33;100.00;98606.53;4790891;29;20510;-61
2021/07/01 07:38:18;;;;;;;7.70;2.75;;;;;;;23.74;100.00;98611.03;4803229;29;20046;-61
2021/07/01 07:40:44;;;;;;;5.93;3.05;;;;;;;24.17;100.00;98603.81;4800144;29;20073;-61
2021/07/01 07:43:13;;;;;;;6.75;3.47;;;;;;;24.61;99.22;98605.13;4804182;29;20653;-60
2021/07/01 07:45:39;;;;;;;7.45;4.00;;;;;;;25.08;94.67;98601.75;4803793;29;20051;-63
2021/07/01 07:48:05;;;;;;;3.75;2.47;;;;;;;25.47;88.82;98607.13;4802724;29;20062;-61
2021/07/01 07:50:32;;;;;;;5.57;2.90;;;;;;;25.75;86.46;98604.84;4800986;29;20050;-66
2021/07/01 07:52:58;;;;;;;12.65;8.00;;;;;;;25.83;84.20;98610.13;4792263;29;20043;-65
2021/07/01 07:55:27;;;;;;;4.13;3.15;;;;;;;25.69;82.94;98611.69;4789129;29;20043;-58
2021/07/01 07:57:55;;;;;;;3.92;2.47;;;;;;;25.41;83.38;98613.97;4802555;29;20050;-57
2021/07/01 08:00:28;;;;;;;6.22;5.55;;;;;;;25.16;84.07;98615.88;4804368;29;20606;-57
2021/07/01 08:02:57;;;;;;;4.65;3.28;;;;;;;25.01;84.50;98609.59;4804109;29;20081;-58
2021/07/01 08:05:29;;;;;;;4.53;2.40;;;;;;;25.29;83.11;98616.16;4787928;29;20047;-59
2021/07/01 08:07:58;;;;;;;5.97;2.95;;;;;;;25.36;82.24;98620.78;4802650;29;20746;-59
2021/07/01 08:10:30;;;;;;;4.13;2.58;;;;;;;25.16;83.14;98617.72;4800460;29;20507;-59
2021/07/01 08:13:03;;;;;;;7.72;3.28;;;;;;;24.96;84.27;98622.59;4800016;29;20074;-60
2021/07/01 08:15:30;;;;;;;6.80;4.60;;;;;;;24.81;84.79;98633.03;4801803;29;20129;-55
2021/07/01 08:17:55;;;;;;;7.88;4.28;;;;;;;24.83;84.50;98632.88;4802716;29;20070;-59
2021/07/01 08:20:23;;;;;;;6.72;3.97;;;;;;;25.14;82.40;98633.00;4801098;29;20506;-58
2021/07/01 08:22:52;;;;;;;9.55;5.32;;;;;;;25.88;77.67;98634.38;4800039;29;20043;-58
2021/07/01 08:25:19;;;;;;;4.28;2.95;;;;;;;26.42;73.15;98630.72;4802543;29;20039;-57
2021/07/01 08:27:47;;;;;;;14.80;8.57;;;;;;;26.84;72.12;98630.19;4803395;29;20519;-57
2021/07/01 08:30:15;;;;;;;6.78;3.95;;;;;;;27.33;69.42;98637.69;4804055;29;20937;-58
2021/07/01 08:32:41;;;;;;;3.15;2.70;;;;;;;28.09;64.22;98636.38;4804303;29;20114;-57
2021/07/01 08:35:11;;;;;;;10.65;5.50;;;;;;;29.45;60.55;98637.75;4803948;29;20047;-58
2021/07/01 08:37:39;;;;;;;5.28;3.60;;;;;;;30.00;57.88;98635.09;4805200;29;20071;-62
2021/07/01 08:40:08;;;;;;;6.90;4.47;;;;;;;29.92;57.11;98636.13;4784389;29;20054;-58
2021/07/01 08:42:36;;;;;;;4.05;3.33;;;;;;;29.70;57.97;98656.81;4800322;29;20270;-59
2021/07/01 08:45:07;;;;;;;2.83;2.30;;;;;;;29.22;58.64;98650.56;4800530;29;20078;-59
2021/07/01 08:47:37;;;;;;;3.47;2.65;;;;;;;28.81;59.61;98645.13;4800943;29;20046;-60
2021/07/01 08:50:10;;;;;;;17.38;12.30;;;;;;;28.53;60.64;98655.75;4800683;29;20082;-59
2021/07/01 08:52:57;;;;;;;7.72;6.93;;;;;;;28.61;60.16;98657.50;4799886;29;20053;-58
2021/07/01 08:55:26;;;;;;;4.15;3.10;;;;;;;29.02;58.84;98655.78;4802570;29;20043;-59
2021/07/01 08:57:54;;;;;;;3.47;3.10;;;;;;;29.56;56.03;98659.66;4802298;29;20085;-60
2021/07/01 09:00:20;;;;;;;7.80;6.03;;;;;;;29.78;55.91;98664.69;4781892;29;20051;-59
2021/07/01 09:03:06;;;;;;;9.60;5.75;;;;;;;29.59;55.48;98660.06;4803679;29;20054;-59
2021/07/01 09:05:33;;;;;;;5.25;2.83;;;;;;;29.37;55.82;98666.53;4787304;29;20053;-60
2021/07/01 09:08:01;;;;;;;15.77;10.98;;;;;;;29.11;57.64;98679.72;4803185;29;20103;-60
2021/07/01 09:10:30;;;;;;;5.50;4.28;;;;;;;29.59;56.00;98675.31;4803118;29;20135;-58
2021/07/01 09:12:57;;;;;;;4.68;2.55;;;;;;;31.77;50.12;98679.94;4803846;29;20043;-59
2021/07/01 09:15:25;;;;;;;4.60;2.67;;;;;;;33.86;44.75;98678.56;4803300;29;20527;-59
2021/07/01 09:17:52;;;;;;;3.63;2.17;;;;;;;34.75;41.69;98675.88;4802600;29;20049;-60
2021/07/01 09:20:33;;;;;;;3.08;2.40;;;;;;;34.62;40.90;98675.22;4800205;29;20593;-59
2021/07/01 09:22:58;;;;;;;4.68;2.92;;;;;;;33.93;41.85;98674.72;4799791;29;20053;-59
2021/07/01 09:25:24;;;;;;;4.05;2.20;;;;;;;33.50;42.72;98682.84;4800097;29;20137;-60
2021/07/01 09:30:44;;;;;;;2.63;2.30;;;;;;;33.40;43.36;98679.84;4796891;29;20499;-59
2021/07/01 09:33:09;;;;;;;5.78;3.65;;;;;;;33.45;43.42;98668.41;4786647;29;20047;-59
2021/07/01 09:35:36;;;;;;;9.95;7.85;;;;;;;32.78;44.64;98681.66;4803129;29;20491;-59
2021/07/01 09:38:04;;;;;;;3.75;2.72;;;;;;;31.84;45.78;98672.66;4803237;29;20533;-60
2021/07/01 09:40:33;;;;;;;5.80;5.20;;;;;;;31.64;46.27;98672.72;5284317;24;20111;-59
2021/07/01 09:43:02;;;;;;;5.35;4.85;;;;;;;34.02;41.67;98664.44;4837984;29;20050;-59
2021/07/01 09:45:28;;;;;;;3.85;3.47;;;;;;;36.03;37.86;98666.84;4839708;29;20133;-59
2021/07/01 09:48:05;;;;;;;4.45;3.13;;;;;;;35.14;39.21;98666.25;4839987;29;20050;-60
2021/07/01 09:50:34;;;;;;;12.53;10.93;;;;;;;33.86;41.90;98667.78;4832641;29;20128;-59
2021/07/01 09:52:59;;;;;;;;;;;;;;;32.93;43.82;98672.41;4839886;29;20447;-59
2021/07/01 09:55:30;;;;;;;10.70;8.65;;;;;;;32.16;44.61;98674.38;4853576;29;19927;-59
2021/07/01 09:58:00;;;;;;;17.63;13.95;;;;;;;31.62;45.25;98676.66;4837639;29;20046;-59
2021/07/01 10:00:28;;;;;;;6.78;3.92;;;;;;;31.19;46.36;98658.38;5289961;24;20049;-59
2021/07/01 10:03:07;;;;;;;54.67;45.65;;;;;;;31.12;47.12;98663.75;4801114;29;20459;-60
2021/07/01 10:05:35;;;;;;;8.45;6.53;;;;;;;30.87;47.34;98667.25;4818009;29;20390;-59
2021/07/01 10:08:00;;;;;;;8.68;7.68;;;;;;;31.74;45.58;98678.47;4813022;29;20421;-60
2021/07/01 10:10:26;;;;;;;5.68;3.97;;;;;;;33.58;41.86;98679.88;4819725;29;20053;-65
2021/07/01 10:12:53;;;;;;;6.57;4.47;;;;;;;35.56;38.39;98683.16;4799212;29;20046;-60
2021/07/01 10:15:25;;;;;;;4.53;3.78;;;;;;;36.99;34.94;98682.13;4799176;29;20070;-62
2021/07/01 10:18:08;;;;;;;5.13;3.90;;;;;;;37.41;34.15;98677.09;4800364;29;20043;-58
2021/07/01 10:20:39;;;;;;;4.57;3.40;;;;;;;37.64;33.94;98668.72;4809915;29;20061;-56
2021/07/01 10:23:26;;;;;;;5.30;3.10;;;;;;;37.00;35.09;98677.53;4802245;29;20510;-58
2021/07/01 10:25:54;;;;;;;4.35;3.55;;;;;;;35.88;36.74;98682.78;4801968;29;20089;-59
2021/07/01 10:28:21;;;;;;;9.70;4.70;;;;;;;35.65;37.03;98675.50;4802480;29;20047;-59
2021/07/01 10:31:02;;;;;;;9.70;7.38;;;;;;;35.13;38.13;98672.72;4801141;29;20112;-58
2021/07/01 10:33:30;;;;;;;7.70;7.00;;;;;;;34.73;38.43;98674.44;4802419;29;20053;-60
2021/07/01 10:35:59;;;;;;;8.82;6.68;;;;;;;35.12;37.46;98681.06;4801624;29;20131;-58
2021/07/01 10:38:24;;;;;;;7.28;4.38;;;;;;;34.86;37.45;98685.03;4802158;29;20046;-59
2021/07/01 10:40:53;;;;;;;5.57;4.72;;;;;;;34.25;38.55;98688.00;5254791;24;20062;-57
2021/07/01 10:43:39;;;;;;;4.47;3.47;;;;;;;33.53;39.66;98692.38;4824310;29;20042;-60
2021/07/01 10:46:05;;;;;;;4.93;4.10;;;;;;;33.35;40.41;98695.03;4825411;29;20413;-60
2021/07/01 10:48:31;;;;;;;6.07;5.10;;;;;;;34.04;39.30;98692.00;4816813;29;20047;-59
2021/07/01 10:53:49;;;;;;;4.15;3.75;;;;;;;37.47;33.26;98702.38;4797853;29;20074;-59
2021/07/01 10:56:14;;;;;;;7.72;6.13;;;;;;;37.48;32.92;98696.69;4801617;29;20081;-59
2021/07/01 10:58:41;;;;;;;2.70;2.35;;;;;;;36.13;34.41;98704.91;4801042;29;20078;-58
2021/07/01 11:01:07;;;;;;;5.03;3.33;;;;;;;34.92;36.66;98694.06;4801756;29;20043;-59
2021/07/01 11:03:34;;;;;;;4.55;3.72;;;;;;;34.34;37.93;98702.81;4801706;29;20162;-58
2021/07/01 11:06:04;;;;;;;4.30;1.80;;;;;;;34.00;37.36;98702.44;4801119;29;20081;-59
2021/07/01 11:08:34;;;;;;;4.20;2.30;;;;;;;33.42;38.24;98693.13;4806068;29;20058;-59
2021/07/01 11:11:02;;;;;;;6.80;2.75;;;;;;;32.71;40.19;98693.53;4805311;29;20050;-60
2021/07/01 11:13:28;;;;;;;;;;;;;;;32.04;41.43;98699.44;4805699;29;20458;-59
2021/07/01 11:16:08;;;;;;;6.22;3.80;;;;;;;31.61;43.04;98694.66;4805458;29;19932;-60
2021/07/01 11:18:42;;;;;;;7.88;4.20;;;;;;;31.15;44.28;98697.38;4805858;29;20091;-60
2021/07/01 11:21:12;;;;;;;4.57;3.88;;;;;;;30.75;45.22;98693.03;4806014;29;20190;-60
2021/07/01 11:23:38;;;;;;;5.78;4.03;;;;;;;31.11;44.88;98690.78;4802204;29;20106;-60
2021/07/01 11:26:30;;;;;;;4.03;3.30;;;;;;;33.20;40.84;98698.94;4801212;29;20043;-60
2021/07/01 11:28:57;;;;;;;5.70;5.18;;;;;;;35.24;36.14;98698.13;4800504;29;20145;-56
2021/07/01 11:31:34;;;;;;;4.60;3.80;;;;;;;37.08;33.83;98701.50;4799076;29;20042;-61
2021/07/01 11:34:01;;;;;;;4.17;3.10;;;;;;;38.29;31.77;98707.78;4805457;29;20292;-58
2021/07/01 11:36:27;;;;;;;26.57;19.73;;;;;;;38.25;31.98;98701.25;4797995;29;20129;-59
2021/07/01 11:39:06;;;;;;;3.10;1.98;;;;;;;36.78;32.67;98696.41;4805309;29;20194;-59
2021/07/01 11:44:28;;;;;;;2.78;2.47;;;;;;;38.14;30.42;98689.44;4950961;24;20070;-58
2021/07/01 11:46:54;;;;;;;3.42;2.72;;;;;;;37.64;31.83;98695.03;4823108;29;20114;-58
2021/07/01 11:49:21;;;;;;;8.93;7.22;;;;;;;36.37;33.22;98703.81;4822969;29;20078;-60
2021/07/01 11:51:47;;;;;;;3.75;2.50;;;;;;;35.17;35.07;98700.09;4822908;29;20052;-59
2021/07/01 11:54:13;;;;;;;3.40;2.78;;;;;;;34.41;35.42;98693.59;4822807;29;20046;-60
2021/07/01 11:59:29;;;;;;;2.17;1.80;;;;;;;33.19;37.75;98696.44;4823150;29;20051;-60
2021/07/01 12:01:56;;;;;;;8.63;2.70;;;;;;;33.09;37.73;98694.22;4822346;29;20046;-58